sensor_id;sensor_type;location;lat;lon;timestamp;P1;durP1;ratioP1;P2;durP2;ratioP2
72109;SDS011;59983;52.010;5.420;2023-05-18T00:00:01;9.40;;;7.57;;
72109;SDS011;59983;52.010;5.420;2023-05-18T00:02:28;8.40;;;6.28;;
72109;SDS011;59983;52.010;5.420;2023-05-18T00:04:54;11.65;;;7.75;;
72109;SDS011;59983;52.010;5.420;2023-05-18T00:07:22;8.50;;;7.70;;
72109;SDS011;59983;52.010;5.420;2023-05-18T00:09:48;10.43;;;7.50;;
72109;SDS011;59983;52.010;5.420;2023-05-18T00:12:15;10.23;;;7.70;;
72109;SDS011;59983;52.010;5.420;2023-05-18T00:14:41;10.45;;;6.72;;
72109;SDS011;59983;52.010;5.420;2023-05-18T00:17:08;8.35;;;7.70;;
72109;SDS011;59983;52.010;5.420;2023-05-18T00:19:34;7.60;;;7.10;;
72109;SDS011;59983;52.010;5.420;2023-05-18T00:22:01;8.50;;;7.87;;
72109;SDS011;59983;52.010;5.420;2023-05-18T00:24:28;10.13;;;6.82;;
72109;SDS011;59983;52.010;5.420;2023-05-18T00:26:55;8.32;;;7.63;;
72109;SDS011;59983;52.010;5.420;2023-05-18T00:29:21;7.90;;;7.20;;
72109;SDS011;59983;52.010;5.420;2023-05-18T00:31:48;8.80;;;7.13;;
72109;SDS011;59983;52.010;5.420;2023-05-18T00:34:14;9.33;;;7.97;;
72109;SDS011;59983;52.010;5.420;2023-05-18T00:36:41;7.20;;;6.50;;
72109;SDS011;59983;52.010;5.420;2023-05-18T00:39:08;8.77;;;7.03;;
72109;SDS011;59983;52.010;5.420;2023-05-18T00:41:35;8.20;;;7.70;;
72109;SDS011;59983;52.010;5.420;2023-05-18T00:44:02;8.98;;;8.27;;
72109;SDS011;59983;52.010;5.420;2023-05-18T00:46:30;8.80;;;8.13;;
72109;SDS011;59983;52.010;5.420;2023-05-18T00:48:57;11.00;;;8.13;;
72109;SDS011;59983;52.010;5.420;2023-05-18T00:51:27;8.55;;;6.97;;
72109;SDS011;59983;52.010;5.420;2023-05-18T00:53:55;9.30;;;7.10;;
72109;SDS011;59983;52.010;5.420;2023-05-18T00:56:22;7.72;;;7.25;;
72109;SDS011;59983;52.010;5.420;2023-05-18T00:58:53;9.03;;;8.40;;
72109;SDS011;59983;52.010;5.420;2023-05-18T01:01:23;8.80;;;8.00;;
72109;SDS011;59983;52.010;5.420;2023-05-18T01:03:56;7.97;;;7.25;;
72109;SDS011;59983;52.010;5.420;2023-05-18T01:06:23;9.48;;;7.75;;
72109;SDS011;59983;52.010;5.420;2023-05-18T01:08:53;8.85;;;7.78;;
72109;SDS011;59983;52.010;5.420;2023-05-18T01:11:23;8.17;;;6.73;;
72109;SDS011;59983;52.010;5.420;2023-05-18T01:14:14;8.25;;;7.30;;
72109;SDS011;59983;52.010;5.420;2023-05-18T01:16:56;8.95;;;8.02;;
72109;SDS011;59983;52.010;5.420;2023-05-18T01:20:03;8.35;;;7.75;;
72109;SDS011;59983;52.010;5.420;2023-05-18T01:25:40;11.33;;;8.37;;
72109;SDS011;59983;52.010;5.420;2023-05-18T01:28:16;9.13;;;8.32;;
72109;SDS011;59983;52.010;5.420;2023-05-18T01:30:45;7.95;;;7.28;;
72109;SDS011;59983;52.010;5.420;2023-05-18T01:33:12;8.40;;;7.60;;
72109;SDS011;59983;52.010;5.420;2023-05-18T01:35:39;11.38;;;7.70;;
72109;SDS011;59983;52.010;5.420;2023-05-18T01:38:16;8.50;;;7.90;;
72109;SDS011;59983;52.010;5.420;2023-05-18T01:43:28;11.57;;;7.53;;
72109;SDS011;59983;52.010;5.420;2023-05-18T01:46:03;8.75;;;7.85;;
72109;SDS011;59983;52.010;5.420;2023-05-18T01:48:37;8.65;;;7.85;;
72109;SDS011;59983;52.010;5.420;2023-05-18T01:51:06;9.60;;;7.37;;
72109;SDS011;59983;52.010;5.420;2023-05-18T01:53:47;7.82;;;7.18;;
72109;SDS011;59983;52.010;5.420;2023-05-18T01:56:18;8.45;;;7.75;;
72109;SDS011;59983;52.010;5.420;2023-05-18T01:58:46;8.00;;;7.50;;
72109;SDS011;59983;52.010;5.420;2023-05-18T02:01:13;12.23;;;8.52;;
72109;SDS011;59983;52.010;5.420;2023-05-18T02:03:45;11.30;;;7.67;;
72109;SDS011;59983;52.010;5.420;2023-05-18T02:06:12;13.00;;;8.73;;
72109;SDS011;59983;52.010;5.420;2023-05-18T02:08:38;9.02;;;8.20;;
72109;SDS011;59983;52.010;5.420;2023-05-18T02:11:05;8.20;;;7.72;;
72109;SDS011;59983;52.010;5.420;2023-05-18T02:13:31;12.38;;;8.20;;
72109;SDS011;59983;52.010;5.420;2023-05-18T02:15:58;14.13;;;7.80;;
72109;SDS011;59983;52.010;5.420;2023-05-18T02:18:24;28.38;;;8.60;;
72109;SDS011;59983;52.010;5.420;2023-05-18T02:20:57;10.00;;;8.80;;
72109;SDS011;59983;52.010;5.420;2023-05-18T02:23:25;9.35;;;8.32;;
72109;SDS011;59983;52.010;5.420;2023-05-18T02:25:52;8.43;;;7.63;;
72109;SDS011;59983;52.010;5.420;2023-05-18T02:28:22;9.50;;;8.60;;
72109;SDS011;59983;52.010;5.420;2023-05-18T02:30:49;8.57;;;7.88;;
72109;SDS011;59983;52.010;5.420;2023-05-18T02:33:15;8.65;;;8.05;;
72109;SDS011;59983;52.010;5.420;2023-05-18T02:35:42;8.60;;;7.95;;
72109;SDS011;59983;52.010;5.420;2023-05-18T02:38:09;12.52;;;7.70;;
72109;SDS011;59983;52.010;5.420;2023-05-18T02:40:36;9.27;;;8.67;;
72109;SDS011;59983;52.010;5.420;2023-05-18T02:43:02;8.48;;;7.97;;
72109;SDS011;59983;52.010;5.420;2023-05-18T02:45:28;8.65;;;8.05;;
72109;SDS011;59983;52.010;5.420;2023-05-18T02:47:56;8.93;;;8.32;;
72109;SDS011;59983;52.010;5.420;2023-05-18T02:50:22;9.60;;;7.00;;
72109;SDS011;59983;52.010;5.420;2023-05-18T02:52:49;8.13;;;7.57;;
72109;SDS011;59983;52.010;5.420;2023-05-18T02:55:16;9.18;;;7.93;;
72109;SDS011;59983;52.010;5.420;2023-05-18T02:57:44;8.43;;;6.70;;
72109;SDS011;59983;52.010;5.420;2023-05-18T03:00:12;10.23;;;8.57;;
72109;SDS011;59983;52.010;5.420;2023-05-18T03:02:42;8.75;;;7.97;;
72109;SDS011;59983;52.010;5.420;2023-05-18T03:05:09;9.67;;;8.60;;
72109;SDS011;59983;52.010;5.420;2023-05-18T03:07:36;9.77;;;8.05;;
72109;SDS011;59983;52.010;5.420;2023-05-18T03:10:02;13.85;;;8.30;;
72109;SDS011;59983;52.010;5.420;2023-05-18T03:12:29;9.52;;;8.10;;
72109;SDS011;59983;52.010;5.420;2023-05-18T03:14:56;9.75;;;8.80;;
72109;SDS011;59983;52.010;5.420;2023-05-18T03:17:22;8.27;;;7.47;;
72109;SDS011;59983;52.010;5.420;2023-05-18T03:19:49;9.30;;;7.18;;
72109;SDS011;59983;52.010;5.420;2023-05-18T03:22:16;9.32;;;8.50;;
72109;SDS011;59983;52.010;5.420;2023-05-18T03:24:43;9.10;;;8.30;;
72109;SDS011;59983;52.010;5.420;2023-05-18T03:27:10;8.70;;;6.72;;
72109;SDS011;59983;52.010;5.420;2023-05-18T03:29:38;10.20;;;8.70;;
72109;SDS011;59983;52.010;5.420;2023-05-18T03:32:04;8.18;;;6.97;;
72109;SDS011;59983;52.010;5.420;2023-05-18T03:34:31;7.97;;;6.93;;
72109;SDS011;59983;52.010;5.420;2023-05-18T03:36:58;9.05;;;7.82;;
72109;SDS011;59983;52.010;5.420;2023-05-18T03:39:25;8.18;;;7.32;;
72109;SDS011;59983;52.010;5.420;2023-05-18T03:41:51;10.30;;;9.50;;
72109;SDS011;59983;52.010;5.420;2023-05-18T03:44:18;10.40;;;8.05;;
72109;SDS011;59983;52.010;5.420;2023-05-18T03:46:44;8.90;;;8.13;;
72109;SDS011;59983;52.010;5.420;2023-05-18T03:49:11;8.50;;;7.90;;
72109;SDS011;59983;52.010;5.420;2023-05-18T03:51:38;9.18;;;8.57;;
72109;SDS011;59983;52.010;5.420;2023-05-18T03:54:04;8.60;;;8.00;;
72109;SDS011;59983;52.010;5.420;2023-05-18T03:56:31;9.43;;;8.63;;
72109;SDS011;59983;52.010;5.420;2023-05-18T03:58:57;9.48;;;8.25;;
72109;SDS011;59983;52.010;5.420;2023-05-18T04:01:24;11.55;;;7.93;;
72109;SDS011;59983;52.010;5.420;2023-05-18T04:03:51;8.95;;;8.07;;
72109;SDS011;59983;52.010;5.420;2023-05-18T04:06:21;9.87;;;8.47;;
72109;SDS011;59983;52.010;5.420;2023-05-18T04:08:48;8.00;;;7.45;;
72109;SDS011;59983;52.010;5.420;2023-05-18T04:11:15;9.18;;;8.30;;
72109;SDS011;59983;52.010;5.420;2023-05-18T04:13:42;11.13;;;8.20;;
72109;SDS011;59983;52.010;5.420;2023-05-18T04:16:08;8.35;;;7.72;;
72109;SDS011;59983;52.010;5.420;2023-05-18T04:18:39;8.77;;;7.97;;
72109;SDS011;59983;52.010;5.420;2023-05-18T04:21:06;8.02;;;7.28;;
72109;SDS011;59983;52.010;5.420;2023-05-18T04:23:33;9.48;;;7.60;;
72109;SDS011;59983;52.010;5.420;2023-05-18T04:26:04;8.63;;;8.10;;
72109;SDS011;59983;52.010;5.420;2023-05-18T04:28:32;9.85;;;8.88;;
72109;SDS011;59983;52.010;5.420;2023-05-18T04:30:58;12.90;;;9.47;;
72109;SDS011;59983;52.010;5.420;2023-05-18T04:33:29;9.93;;;9.13;;
72109;SDS011;59983;52.010;5.420;2023-05-18T04:35:56;9.15;;;8.45;;
72109;SDS011;59983;52.010;5.420;2023-05-18T04:38:24;9.50;;;8.68;;
72109;SDS011;59983;52.010;5.420;2023-05-18T04:40:51;10.10;;;7.95;;
72109;SDS011;59983;52.010;5.420;2023-05-18T04:43:19;12.10;;;9.77;;
72109;SDS011;59983;52.010;5.420;2023-05-18T04:45:46;10.57;;;8.25;;
72109;SDS011;59983;52.010;5.420;2023-05-18T04:48:15;9.15;;;8.00;;
72109;SDS011;59983;52.010;5.420;2023-05-18T04:50:45;11.65;;;8.68;;
72109;SDS011;59983;52.010;5.420;2023-05-18T04:53:12;11.10;;;8.35;;
72109;SDS011;59983;52.010;5.420;2023-05-18T04:55:38;8.80;;;8.10;;
72109;SDS011;59983;52.010;5.420;2023-05-18T04:58:07;11.95;;;8.30;;
72109;SDS011;59983;52.010;5.420;2023-05-18T05:00:35;11.50;;;8.23;;
72109;SDS011;59983;52.010;5.420;2023-05-18T05:03:02;7.15;;;6.65;;
72109;SDS011;59983;52.010;5.420;2023-05-18T05:05:29;8.75;;;7.85;;
72109;SDS011;59983;52.010;5.420;2023-05-18T05:07:56;10.23;;;8.03;;
72109;SDS011;59983;52.010;5.420;2023-05-18T05:10:24;8.77;;;7.80;;
72109;SDS011;59983;52.010;5.420;2023-05-18T05:12:51;10.68;;;8.48;;
72109;SDS011;59983;52.010;5.420;2023-05-18T05:15:17;11.10;;;7.70;;
72109;SDS011;59983;52.010;5.420;2023-05-18T05:17:45;11.13;;;7.75;;
72109;SDS011;59983;52.010;5.420;2023-05-18T05:20:12;9.17;;;8.23;;
72109;SDS011;59983;52.010;5.420;2023-05-18T05:22:39;10.93;;;8.35;;
72109;SDS011;59983;52.010;5.420;2023-05-18T05:25:06;8.57;;;7.75;;
72109;SDS011;59983;52.010;5.420;2023-05-18T05:27:33;9.00;;;7.78;;
72109;SDS011;59983;52.010;5.420;2023-05-18T05:29:59;10.73;;;7.88;;
72109;SDS011;59983;52.010;5.420;2023-05-18T05:32:26;15.07;;;8.70;;
72109;SDS011;59983;52.010;5.420;2023-05-18T05:34:52;9.40;;;8.57;;
72109;SDS011;59983;52.010;5.420;2023-05-18T05:37:19;8.48;;;7.47;;
72109;SDS011;59983;52.010;5.420;2023-05-18T05:39:46;9.00;;;8.27;;
72109;SDS011;59983;52.010;5.420;2023-05-18T05:42:12;13.93;;;7.35;;
72109;SDS011;59983;52.010;5.420;2023-05-18T05:44:39;8.67;;;8.10;;
72109;SDS011;59983;52.010;5.420;2023-05-18T05:47:06;8.90;;;8.23;;
72109;SDS011;59983;52.010;5.420;2023-05-18T05:49:34;11.48;;;7.78;;
72109;SDS011;59983;52.010;5.420;2023-05-18T05:52:01;8.63;;;7.88;;
72109;SDS011;59983;52.010;5.420;2023-05-18T05:54:27;8.55;;;7.75;;
72109;SDS011;59983;52.010;5.420;2023-05-18T05:56:54;7.90;;;7.20;;
72109;SDS011;59983;52.010;5.420;2023-05-18T05:59:21;10.52;;;7.88;;
72109;SDS011;59983;52.010;5.420;2023-05-18T06:01:47;9.20;;;7.85;;
72109;SDS011;59983;52.010;5.420;2023-05-18T06:04:14;8.95;;;8.07;;
72109;SDS011;59983;52.010;5.420;2023-05-18T06:06:41;9.43;;;7.65;;
72109;SDS011;59983;52.010;5.420;2023-05-18T06:09:09;8.20;;;6.37;;
72109;SDS011;59983;52.010;5.420;2023-05-18T06:11:36;8.40;;;7.60;;
72109;SDS011;59983;52.010;5.420;2023-05-18T06:14:03;8.13;;;7.43;;
72109;SDS011;59983;52.010;5.420;2023-05-18T06:16:29;7.68;;;6.97;;
72109;SDS011;59983;52.010;5.420;2023-05-18T06:18:56;7.55;;;6.75;;
72109;SDS011;59983;52.010;5.420;2023-05-18T06:21:23;8.30;;;7.43;;
72109;SDS011;59983;52.010;5.420;2023-05-18T06:23:49;12.43;;;7.80;;
72109;SDS011;59983;52.010;5.420;2023-05-18T06:26:16;9.15;;;8.10;;
72109;SDS011;59983;52.010;5.420;2023-05-18T06:28:42;7.60;;;6.72;;
72109;SDS011;59983;52.010;5.420;2023-05-18T06:31:09;7.63;;;7.13;;
72109;SDS011;59983;52.010;5.420;2023-05-18T06:33:36;7.63;;;6.90;;
72109;SDS011;59983;52.010;5.420;2023-05-18T06:36:03;15.38;;;6.82;;
72109;SDS011;59983;52.010;5.420;2023-05-18T06:38:30;10.68;;;6.32;;
72109;SDS011;59983;52.010;5.420;2023-05-18T06:40:57;5.90;;;5.53;;
72109;SDS011;59983;52.010;5.420;2023-05-18T06:43:23;7.00;;;6.32;;
72109;SDS011;59983;52.010;5.420;2023-05-18T06:45:54;6.43;;;6.03;;
72109;SDS011;59983;52.010;5.420;2023-05-18T06:48:22;6.53;;;5.95;;
72109;SDS011;59983;52.010;5.420;2023-05-18T06:50:51;7.88;;;5.43;;
72109;SDS011;59983;52.010;5.420;2023-05-18T06:53:19;9.95;;;5.75;;
72109;SDS011;59983;52.010;5.420;2023-05-18T06:55:46;6.28;;;4.82;;
72109;SDS011;59983;52.010;5.420;2023-05-18T06:58:12;7.83;;;5.77;;
72109;SDS011;59983;52.010;5.420;2023-05-18T07:00:39;7.03;;;5.57;;
72109;SDS011;59983;52.010;5.420;2023-05-18T07:03:05;6.57;;;5.97;;
72109;SDS011;59983;52.010;5.420;2023-05-18T07:05:33;8.55;;;5.55;;
72109;SDS011;59983;52.010;5.420;2023-05-18T07:08:04;8.68;;;5.72;;
72109;SDS011;59983;52.010;5.420;2023-05-18T07:10:31;9.60;;;5.63;;
72109;SDS011;59983;52.010;5.420;2023-05-18T07:12:57;8.93;;;5.22;;
72109;SDS011;59983;52.010;5.420;2023-05-18T07:15:24;8.13;;;5.30;;
72109;SDS011;59983;52.010;5.420;2023-05-18T07:17:51;6.97;;;5.18;;
72109;SDS011;59983;52.010;5.420;2023-05-18T07:20:18;7.35;;;5.15;;
72109;SDS011;59983;52.010;5.420;2023-05-18T07:22:45;13.77;;;5.57;;
72109;SDS011;59983;52.010;5.420;2023-05-18T07:25:11;8.02;;;4.88;;
72109;SDS011;59983;52.010;5.420;2023-05-18T07:27:38;6.13;;;5.38;;
72109;SDS011;59983;52.010;5.420;2023-05-18T07:30:05;8.20;;;5.30;;
72109;SDS011;59983;52.010;5.420;2023-05-18T07:32:33;14.93;;;6.35;;
72109;SDS011;59983;52.010;5.420;2023-05-18T07:34:59;7.60;;;5.17;;
72109;SDS011;59983;52.010;5.420;2023-05-18T07:37:26;6.25;;;4.70;;
72109;SDS011;59983;52.010;5.420;2023-05-18T07:39:52;6.80;;;4.57;;
72109;SDS011;59983;52.010;5.420;2023-05-18T07:42:19;8.65;;;5.18;;
72109;SDS011;59983;52.010;5.420;2023-05-18T07:44:45;13.80;;;5.38;;
72109;SDS011;59983;52.010;5.420;2023-05-18T07:47:12;5.27;;;4.77;;
72109;SDS011;59983;52.010;5.420;2023-05-18T07:49:38;6.88;;;4.90;;
72109;SDS011;59983;52.010;5.420;2023-05-18T07:52:06;9.63;;;4.90;;
72109;SDS011;59983;52.010;5.420;2023-05-18T07:54:33;14.48;;;5.38;;
72109;SDS011;59983;52.010;5.420;2023-05-18T07:56:59;8.52;;;4.78;;
72109;SDS011;59983;52.010;5.420;2023-05-18T07:59:26;10.37;;;4.90;;
72109;SDS011;59983;52.010;5.420;2023-05-18T08:01:53;6.30;;;4.93;;
72109;SDS011;59983;52.010;5.420;2023-05-18T08:04:20;8.88;;;4.38;;
72109;SDS011;59983;52.010;5.420;2023-05-18T08:06:46;5.20;;;4.70;;
72109;SDS011;59983;52.010;5.420;2023-05-18T08:09:13;6.88;;;4.82;;
72109;SDS011;59983;52.010;5.420;2023-05-18T08:11:40;8.07;;;4.83;;
72109;SDS011;59983;52.010;5.420;2023-05-18T08:14:08;8.82;;;4.60;;
72109;SDS011;59983;52.010;5.420;2023-05-18T08:16:35;12.55;;;4.82;;
72109;SDS011;59983;52.010;5.420;2023-05-18T08:19:02;6.70;;;4.28;;
72109;SDS011;59983;52.010;5.420;2023-05-18T08:21:29;8.18;;;4.80;;
72109;SDS011;59983;52.010;5.420;2023-05-18T08:23:56;5.70;;;4.60;;
72109;SDS011;59983;52.010;5.420;2023-05-18T08:26:22;9.27;;;4.45;;
72109;SDS011;59983;52.010;5.420;2023-05-18T08:28:49;7.50;;;5.00;;
72109;SDS011;59983;52.010;5.420;2023-05-18T08:31:16;9.88;;;5.03;;
72109;SDS011;59983;52.010;5.420;2023-05-18T08:33:42;8.18;;;4.72;;
72109;SDS011;59983;52.010;5.420;2023-05-18T08:36:09;8.63;;;4.53;;
72109;SDS011;59983;52.010;5.420;2023-05-18T08:38:36;6.22;;;4.53;;
72109;SDS011;59983;52.010;5.420;2023-05-18T08:41:19;7.10;;;4.00;;
72109;SDS011;59983;52.010;5.420;2023-05-18T08:47:03;6.57;;;4.05;;
72109;SDS011;59983;52.010;5.420;2023-05-18T08:49:34;10.97;;;5.33;;
72109;SDS011;59983;52.010;5.420;2023-05-18T08:52:03;9.68;;;4.72;;
72109;SDS011;59983;52.010;5.420;2023-05-18T08:54:30;9.38;;;4.53;;
72109;SDS011;59983;52.010;5.420;2023-05-18T08:56:58;8.60;;;4.57;;
72109;SDS011;59983;52.010;5.420;2023-05-18T08:59:26;7.65;;;4.85;;
72109;SDS011;59983;52.010;5.420;2023-05-18T09:01:56;11.17;;;5.17;;
72109;SDS011;59983;52.010;5.420;2023-05-18T09:04:23;7.57;;;4.57;;
72109;SDS011;59983;52.010;5.420;2023-05-18T09:06:53;5.18;;;4.30;;
72109;SDS011;59983;52.010;5.420;2023-05-18T09:09:20;5.75;;;4.28;;
72109;SDS011;59983;52.010;5.420;2023-05-18T09:11:47;7.90;;;4.57;;
72109;SDS011;59983;52.010;5.420;2023-05-18T09:14:15;9.80;;;4.90;;
72109;SDS011;59983;52.010;5.420;2023-05-18T09:16:41;8.40;;;4.43;;
72109;SDS011;59983;52.010;5.420;2023-05-18T09:19:08;6.82;;;4.47;;
72109;SDS011;59983;52.010;5.420;2023-05-18T09:21:35;10.27;;;4.65;;
72109;SDS011;59983;52.010;5.420;2023-05-18T09:24:02;6.45;;;5.07;;
72109;SDS011;59983;52.010;5.420;2023-05-18T09:26:29;9.97;;;4.43;;
72109;SDS011;59983;52.010;5.420;2023-05-18T09:28:56;5.53;;;4.65;;
72109;SDS011;59983;52.010;5.420;2023-05-18T09:31:24;5.68;;;4.22;;
72109;SDS011;59983;52.010;5.420;2023-05-18T09:33:52;8.75;;;4.88;;
72109;SDS011;59983;52.010;5.420;2023-05-18T09:36:23;6.82;;;4.43;;
72109;SDS011;59983;52.010;5.420;2023-05-18T09:38:51;7.97;;;4.50;;
72109;SDS011;59983;52.010;5.420;2023-05-18T09:41:18;9.25;;;4.57;;
72109;SDS011;59983;52.010;5.420;2023-05-18T09:43:46;10.75;;;4.32;;
72109;SDS011;59983;52.010;5.420;2023-05-18T09:46:13;6.78;;;4.55;;
72109;SDS011;59983;52.010;5.420;2023-05-18T09:48:41;5.28;;;4.13;;
72109;SDS011;59983;52.010;5.420;2023-05-18T09:51:09;7.57;;;4.30;;
72109;SDS011;59983;52.010;5.420;2023-05-18T09:54:02;6.13;;;3.80;;
72109;SDS011;59983;52.010;5.420;2023-05-18T09:56:33;7.53;;;4.75;;
72109;SDS011;59983;52.010;5.420;2023-05-18T09:59:19;6.50;;;4.35;;
72109;SDS011;59983;52.010;5.420;2023-05-18T10:01:55;8.75;;;4.60;;
72109;SDS011;59983;52.010;5.420;2023-05-18T10:04:38;9.90;;;6.33;;
72109;SDS011;59983;52.010;5.420;2023-05-18T10:07:09;9.68;;;4.97;;
72109;SDS011;59983;52.010;5.420;2023-05-18T10:09:38;8.68;;;5.95;;
72109;SDS011;59983;52.010;5.420;2023-05-18T10:12:16;4.97;;;4.45;;
72109;SDS011;59983;52.010;5.420;2023-05-18T10:14:44;8.93;;;4.65;;
72109;SDS011;59983;52.010;5.420;2023-05-18T10:17:12;6.57;;;3.63;;
72109;SDS011;59983;52.010;5.420;2023-05-18T10:19:42;7.20;;;4.28;;
72109;SDS011;59983;52.010;5.420;2023-05-18T10:22:09;4.72;;;4.00;;
72109;SDS011;59983;52.010;5.420;2023-05-18T10:24:41;6.93;;;3.70;;
72109;SDS011;59983;52.010;5.420;2023-05-18T10:27:10;5.13;;;3.25;;
72109;SDS011;59983;52.010;5.420;2023-05-18T10:29:42;5.67;;;3.33;;
72109;SDS011;59983;52.010;5.420;2023-05-18T10:32:11;7.38;;;3.70;;
72109;SDS011;59983;52.010;5.420;2023-05-18T10:34:40;4.40;;;3.17;;
72109;SDS011;59983;52.010;5.420;2023-05-18T10:37:08;4.90;;;3.47;;
72109;SDS011;59983;52.010;5.420;2023-05-18T10:39:37;9.07;;;3.72;;
72109;SDS011;59983;52.010;5.420;2023-05-18T10:42:07;5.40;;;3.23;;
72109;SDS011;59983;52.010;5.420;2023-05-18T10:44:35;7.93;;;3.85;;
72109;SDS011;59983;52.010;5.420;2023-05-18T10:47:04;9.68;;;4.18;;
72109;SDS011;59983;52.010;5.420;2023-05-18T10:49:31;9.23;;;4.32;;
72109;SDS011;59983;52.010;5.420;2023-05-18T10:51:58;7.60;;;3.60;;
72109;SDS011;59983;52.010;5.420;2023-05-18T10:54:26;8.23;;;3.50;;
72109;SDS011;59983;52.010;5.420;2023-05-18T10:56:53;6.40;;;4.20;;
72109;SDS011;59983;52.010;5.420;2023-05-18T10:59:19;6.53;;;3.75;;
72109;SDS011;59983;52.010;5.420;2023-05-18T11:01:49;12.77;;;4.50;;
72109;SDS011;59983;52.010;5.420;2023-05-18T11:04:22;8.05;;;4.00;;
72109;SDS011;59983;52.010;5.420;2023-05-18T11:06:53;5.70;;;3.80;;
72109;SDS011;59983;52.010;5.420;2023-05-18T11:09:22;5.82;;;3.17;;
72109;SDS011;59983;52.010;5.420;2023-05-18T11:11:53;9.30;;;4.72;;
72109;SDS011;59983;52.010;5.420;2023-05-18T11:14:26;5.80;;;3.55;;
72109;SDS011;59983;52.010;5.420;2023-05-18T11:27:49;8.48;;;4.32;;
72109;SDS011;59983;52.010;5.420;2023-05-18T11:33:09;6.80;;;3.50;;
72109;SDS011;59983;52.010;5.420;2023-05-18T11:44:13;8.90;;;4.38;;
72109;SDS011;59983;52.010;5.420;2023-05-18T11:49:24;6.63;;;4.63;;
72109;SDS011;59983;52.010;5.420;2023-05-18T11:54:25;6.53;;;4.60;;
72109;SDS011;59983;52.010;5.420;2023-05-18T11:56:52;8.13;;;4.60;;
72109;SDS011;59983;52.010;5.420;2023-05-18T12:01:59;6.18;;;3.80;;
72109;SDS011;59983;52.010;5.420;2023-05-18T12:04:27;5.28;;;3.83;;
72109;SDS011;59983;52.010;5.420;2023-05-18T12:06:55;9.23;;;4.38;;
72109;SDS011;59983;52.010;5.420;2023-05-18T12:09:23;5.85;;;4.20;;
72109;SDS011;59983;52.010;5.420;2023-05-18T12:11:50;4.20;;;3.73;;
72109;SDS011;59983;52.010;5.420;2023-05-18T12:14:17;4.72;;;3.80;;
72109;SDS011;59983;52.010;5.420;2023-05-18T12:16:46;6.45;;;3.72;;
72109;SDS011;59983;52.010;5.420;2023-05-18T12:19:14;4.80;;;4.18;;
72109;SDS011;59983;52.010;5.420;2023-05-18T12:21:42;6.57;;;4.00;;
72109;SDS011;59983;52.010;5.420;2023-05-18T12:24:09;9.47;;;4.77;;
72109;SDS011;59983;52.010;5.420;2023-05-18T12:26:36;4.88;;;3.90;;
72109;SDS011;59983;52.010;5.420;2023-05-18T12:29:03;7.45;;;3.58;;
72109;SDS011;59983;52.010;5.420;2023-05-18T12:31:30;6.10;;;3.33;;
72109;SDS011;59983;52.010;5.420;2023-05-18T12:33:57;9.50;;;3.40;;
72109;SDS011;59983;52.010;5.420;2023-05-18T12:36:24;5.00;;;3.23;;
72109;SDS011;59983;52.010;5.420;2023-05-18T12:38:52;4.88;;;3.42;;
72109;SDS011;59983;52.010;5.420;2023-05-18T12:41:22;4.57;;;2.95;;
72109;SDS011;59983;52.010;5.420;2023-05-18T12:43:50;6.95;;;3.47;;
72109;SDS011;59983;52.010;5.420;2023-05-18T12:46:22;5.53;;;3.05;;
72109;SDS011;59983;52.010;5.420;2023-05-18T12:48:56;5.23;;;2.70;;
72109;SDS011;59983;52.010;5.420;2023-05-18T12:51:24;5.10;;;3.08;;
72109;SDS011;59983;52.010;5.420;2023-05-18T12:53:56;5.70;;;2.75;;
72109;SDS011;59983;52.010;5.420;2023-05-18T12:56:23;5.57;;;2.53;;
72109;SDS011;59983;52.010;5.420;2023-05-18T12:58:54;4.47;;;2.65;;
72109;SDS011;59983;52.010;5.420;2023-05-18T13:01:22;6.43;;;2.80;;
72109;SDS011;59983;52.010;5.420;2023-05-18T13:03:56;7.43;;;2.75;;
72109;SDS011;59983;52.010;5.420;2023-05-18T13:06:24;4.85;;;2.30;;
72109;SDS011;59983;52.010;5.420;2023-05-18T13:08:54;3.55;;;1.77;;
72109;SDS011;59983;52.010;5.420;2023-05-18T13:11:24;5.55;;;2.17;;
72109;SDS011;59983;52.010;5.420;2023-05-18T13:13:58;5.93;;;2.83;;
72109;SDS011;59983;52.010;5.420;2023-05-18T13:16:32;4.22;;;2.47;;
72109;SDS011;59983;52.010;5.420;2023-05-18T13:19:01;8.88;;;2.40;;
72109;SDS011;59983;52.010;5.420;2023-05-18T13:21:29;7.90;;;2.80;;
72109;SDS011;59983;52.010;5.420;2023-05-18T13:23:56;5.95;;;2.17;;
72109;SDS011;59983;52.010;5.420;2023-05-18T13:26:23;6.97;;;2.80;;
72109;SDS011;59983;52.010;5.420;2023-05-18T13:28:51;7.28;;;3.38;;
72109;SDS011;59983;52.010;5.420;2023-05-18T13:31:19;4.88;;;2.33;;
72109;SDS011;59983;52.010;5.420;2023-05-18T13:33:46;4.10;;;2.90;;
72109;SDS011;59983;52.010;5.420;2023-05-18T13:36:14;5.93;;;3.00;;
72109;SDS011;59983;52.010;5.420;2023-05-18T13:38:41;6.07;;;2.73;;
72109;SDS011;59983;52.010;5.420;2023-05-18T13:41:11;3.40;;;3.10;;
72109;SDS011;59983;52.010;5.420;2023-05-18T13:43:40;5.03;;;2.85;;
72109;SDS011;59983;52.010;5.420;2023-05-18T13:46:07;6.93;;;2.55;;
72109;SDS011;59983;52.010;5.420;2023-05-18T13:48:34;7.20;;;2.40;;
72109;SDS011;59983;52.010;5.420;2023-05-18T13:51:00;7.03;;;2.97;;
72109;SDS011;59983;52.010;5.420;2023-05-18T13:53:27;7.00;;;2.58;;
72109;SDS011;59983;52.010;5.420;2023-05-18T13:55:54;5.82;;;3.28;;
72109;SDS011;59983;52.010;5.420;2023-05-18T13:58:20;5.18;;;3.20;;
72109;SDS011;59983;52.010;5.420;2023-05-18T14:00:49;4.53;;;2.53;;
72109;SDS011;59983;52.010;5.420;2023-05-18T14:03:15;8.63;;;3.20;;
72109;SDS011;59983;52.010;5.420;2023-05-18T14:05:45;4.78;;;3.08;;
72109;SDS011;59983;52.010;5.420;2023-05-18T14:08:11;6.80;;;3.10;;
72109;SDS011;59983;52.010;5.420;2023-05-18T14:10:38;5.00;;;2.72;;
72109;SDS011;59983;52.010;5.420;2023-05-18T14:13:05;5.93;;;3.00;;
72109;SDS011;59983;52.010;5.420;2023-05-18T14:15:33;3.67;;;2.80;;
72109;SDS011;59983;52.010;5.420;2023-05-18T14:18:00;5.43;;;3.03;;
72109;SDS011;59983;52.010;5.420;2023-05-18T14:20:27;7.55;;;2.92;;
72109;SDS011;59983;52.010;5.420;2023-05-18T14:22:55;4.50;;;3.20;;
72109;SDS011;59983;52.010;5.420;2023-05-18T14:25:21;7.28;;;3.50;;
72109;SDS011;59983;52.010;5.420;2023-05-18T14:27:48;4.03;;;3.23;;
72109;SDS011;59983;52.010;5.420;2023-05-18T14:30:14;8.85;;;4.20;;
72109;SDS011;59983;52.010;5.420;2023-05-18T14:32:41;4.78;;;3.75;;
72109;SDS011;59983;52.010;5.420;2023-05-18T14:35:08;6.82;;;3.97;;
72109;SDS011;59983;52.010;5.420;2023-05-18T14:37:34;6.32;;;4.03;;
72109;SDS011;59983;52.010;5.420;2023-05-18T14:40:01;6.37;;;3.90;;
72109;SDS011;59983;52.010;5.420;2023-05-18T14:42:28;7.45;;;3.75;;
72109;SDS011;59983;52.010;5.420;2023-05-18T14:44:54;6.22;;;3.80;;
72109;SDS011;59983;52.010;5.420;2023-05-18T14:47:21;6.28;;;3.75;;
72109;SDS011;59983;52.010;5.420;2023-05-18T14:49:47;7.97;;;3.72;;
72109;SDS011;59983;52.010;5.420;2023-05-18T14:52:14;4.90;;;3.27;;
72109;SDS011;59983;52.010;5.420;2023-05-18T14:54:41;8.82;;;4.85;;
72109;SDS011;59983;52.010;5.420;2023-05-18T14:57:08;9.43;;;4.43;;
72109;SDS011;59983;52.010;5.420;2023-05-18T14:59:34;5.07;;;4.18;;
72109;SDS011;59983;52.010;5.420;2023-05-18T15:02:01;6.63;;;3.47;;
72109;SDS011;59983;52.010;5.420;2023-05-18T15:04:28;6.37;;;3.80;;
72109;SDS011;59983;52.010;5.420;2023-05-18T15:06:54;4.30;;;3.38;;
72109;SDS011;59983;52.010;5.420;2023-05-18T15:09:21;5.45;;;3.58;;
72109;SDS011;59983;52.010;5.420;2023-05-18T15:11:51;4.25;;;3.35;;
72109;SDS011;59983;52.010;5.420;2023-05-18T15:14:17;5.80;;;3.53;;
72109;SDS011;59983;52.010;5.420;2023-05-18T15:16:44;6.90;;;3.60;;
72109;SDS011;59983;52.010;5.420;2023-05-18T15:19:11;4.78;;;3.70;;
72109;SDS011;59983;52.010;5.420;2023-05-18T15:21:38;4.90;;;4.05;;
72109;SDS011;59983;52.010;5.420;2023-05-18T15:24:05;6.00;;;4.25;;
72109;SDS011;59983;52.010;5.420;2023-05-18T15:26:32;4.82;;;3.75;;
72109;SDS011;59983;52.010;5.420;2023-05-18T15:28:59;8.60;;;3.87;;